Terminal Aerodrome Forecast
Issued by NWS Knoxville/Tri Cities, TN

Home | Current Version | Previous Version | Text Only | Print | Product List | Glossary On
Versions: 1 2 3 4 5 6 7 8 9 10 11 12 13 14 15 16 17 18 19 20 21
000
FTUS44 KMRX 251120
TAFCHA
TAF
KCHA 251120Z 2512/2612 33007KT P6SM SCT060 SCT150 BKN250
     FM251300 33008KT P6SM -RA SCT040 OVC120
     FM251430 35009KT P6SM FEW050 BKN150
     FM251700 35011KT P6SM SCT150 BKN250
     FM260100 34003KT P6SM SCT250=

USA.gov is the U.S. government's official web portal to all federal, state and local government web resources and services.